createdAt,value
2018-12-22T00:03:05.330Z,37.79
2018-12-22T00:08:11.454Z,37.16
2018-12-22T00:13:17.672Z,39.71
2018-12-22T00:18:23.788Z,41.27
2018-12-22T00:23:29.941Z,39.30
2018-12-22T00:28:36.112Z,38.95
2018-12-22T00:33:42.408Z,39.94
2018-12-22T00:38:48.568Z,45.18
2018-12-22T00:43:54.717Z,44.60
2018-12-22T00:49:00.842Z,34.22
2018-12-22T00:54:06.989Z,40.49
2018-12-22T00:59:13.122Z,48.79
2018-12-22T01:04:19.279Z,44.91
2018-12-22T01:09:25.410Z,39.67
2018-12-22T01:14:31.556Z,33.98
2018-12-22T01:19:37.722Z,37.81
2018-12-22T01:24:43.918Z,34.18
2018-12-22T01:29:50.030Z,30.47
2018-12-22T01:34:56.310Z,42.95
2018-12-22T01:40:02.455Z,39.30
2018-12-22T01:45:08.637Z,36.02
2018-12-22T01:50:14.767Z,38.62
2018-12-22T01:55:20.942Z,43.00
2018-12-22T02:00:27.086Z,42.45
2018-12-22T02:05:33.385Z,39.72
2018-12-22T02:10:39.519Z,38.64
2018-12-22T02:15:45.813Z,24.92
2018-12-22T02:20:51.938Z,27.97
2018-12-22T02:25:58.099Z,15.07
2018-12-22T02:31:04.226Z,28.29
2018-12-22T02:36:10.541Z,28.70
2018-12-22T02:41:16.682Z,28.28
2018-12-22T02:46:22.929Z,22.75
2018-12-22T02:51:29.035Z,31.87
2018-12-22T02:56:35.273Z,35.17
2018-12-22T03:01:41.449Z,24.93
2018-12-22T03:06:47.697Z,28.57
2018-12-22T03:11:53.846Z,30.81
2018-12-22T03:17:00.242Z,29.14
2018-12-22T03:22:06.373Z,21.14
2018-12-22T03:27:12.646Z,24.48
2018-12-22T03:32:18.783Z,26.48
2018-12-22T03:37:25.113Z,21.13
2018-12-22T03:42:31.256Z,18.56
2018-12-22T03:47:37.457Z,24.87
2018-12-22T03:52:43.648Z,22.15
2018-12-22T03:57:49.832Z,24.41
2018-12-22T04:02:55.948Z,19.67
2018-12-22T04:08:02.186Z,18.83
2018-12-22T04:13:08.293Z,19.92
2018-12-22T04:18:14.472Z,22.84
2018-12-22T04:23:20.603Z,25.50
2018-12-22T04:28:26.776Z,21.05
2018-12-22T04:33:32.921Z,13.79
2018-12-22T04:38:39.085Z,12.67
2018-12-22T04:43:45.205Z,11.15
2018-12-22T04:48:51.410Z,15.64
2018-12-22T04:53:57.527Z,12.36
2018-12-22T04:59:03.672Z,11.98
2018-12-22T05:04:09.808Z,15.92
2018-12-22T05:09:15.959Z,16.09
2018-12-22T05:14:22.101Z,12.60
2018-12-22T05:19:28.233Z,10.80
2018-12-22T05:24:34.560Z,12.97
2018-12-22T05:29:40.724Z,7.92
2018-12-22T05:34:46.854Z,8.19
2018-12-22T05:39:53.047Z,11.21
2018-12-22T05:44:59.186Z,9.14
2018-12-22T05:50:05.377Z,8.38
2018-12-22T05:55:11.512Z,8.59
2018-12-22T06:00:17.640Z,12.43
2018-12-22T06:05:23.770Z,12.01
2018-12-22T06:10:29.911Z,15.26
2018-12-22T06:15:36.038Z,10.80
2018-12-22T06:20:42.192Z,9.13
2018-12-22T06:25:48.438Z,8.00
2018-12-22T06:30:54.805Z,13.04
2018-12-22T06:36:00.927Z,10.31
2018-12-22T06:41:07.282Z,12.54
2018-12-22T06:46:13.415Z,10.31
2018-12-22T06:51:19.552Z,10.12
2018-12-22T06:56:25.691Z,7.34
2018-12-22T07:01:31.877Z,10.56
2018-12-22T07:06:37.988Z,15.10
2018-12-22T07:11:44.131Z,9.75
2018-12-22T07:16:50.243Z,11.98
2018-12-22T07:21:56.360Z,10.39
2018-12-22T07:27:02.482Z,11.70
2018-12-22T07:32:08.593Z,12.82
2018-12-22T07:37:14.775Z,8.57
2018-12-22T07:42:21.077Z,10.04
2018-12-22T07:47:27.234Z,10.56
2018-12-22T07:52:33.371Z,10.69
2018-12-22T07:57:39.526Z,13.15
2018-12-22T08:02:45.721Z,13.92
2018-12-22T08:07:51.830Z,11.04
2018-12-22T08:12:57.994Z,11.05
2018-12-22T08:18:04.123Z,10.48
2018-12-22T08:23:10.269Z,12.28
2018-12-22T08:28:16.402Z,15.51
2018-12-22T08:33:22.537Z,9.41
2018-12-22T08:38:28.664Z,9.83
2018-12-22T08:43:34.893Z,15.11
2018-12-22T08:48:40.988Z,15.60
2018-12-22T08:53:47.147Z,12.17
2018-12-22T08:58:53.298Z,12.39
2018-12-22T09:03:59.429Z,17.07
2018-12-22T09:09:05.587Z,14.37
2018-12-22T09:14:11.739Z,11.96
2018-12-22T09:19:17.938Z,17.01
2018-12-22T09:24:24.230Z,16.18
2018-12-22T09:29:30.379Z,13.42
2018-12-22T09:34:36.612Z,10.70
2018-12-22T09:39:42.718Z,11.40
2018-12-22T09:44:48.843Z,12.58
2018-12-22T09:49:55.022Z,11.92
2018-12-22T09:55:01.193Z,11.33
2018-12-22T10:00:07.357Z,12.80
2018-12-22T10:05:13.896Z,12.12
2018-12-22T10:10:19.862Z,13.49
2018-12-22T10:15:26.136Z,11.60
2018-12-22T10:20:32.264Z,10.66
2018-12-22T10:25:38.482Z,9.74
2018-12-22T10:30:44.625Z,9.09
2018-12-22T10:35:50.849Z,9.33
2018-12-22T10:40:56.969Z,9.91
2018-12-22T10:46:03.137Z,11.73
2018-12-22T10:51:09.259Z,11.99
2018-12-22T10:56:15.500Z,11.54
2018-12-22T11:01:26.447Z,10.37
2018-12-22T11:06:27.274Z,11.53
2018-12-22T11:11:33.396Z,12.91
2018-12-22T11:16:39.582Z,11.97
2018-12-22T11:21:45.702Z,14.65
2018-12-22T11:26:51.852Z,11.54
2018-12-22T11:31:57.992Z,11.60
2018-12-22T11:37:04.191Z,13.54
2018-12-22T11:42:10.372Z,13.82
2018-12-22T11:47:16.452Z,13.50
2018-12-22T11:52:22.597Z,13.98
2018-12-22T11:57:28.760Z,15.02
2018-12-22T12:02:34.878Z,11.70
2018-12-22T12:07:40.978Z,11.80
2018-12-22T12:12:47.101Z,14.12
2018-12-22T12:17:53.264Z,13.59
2018-12-22T12:22:59.383Z,12.73
2018-12-22T12:28:05.609Z,12.25
2018-12-22T12:33:11.721Z,17.21
2018-12-22T12:38:17.889Z,10.36
2018-12-22T12:43:24.085Z,14.13
2018-12-22T12:48:30.234Z,12.39
2018-12-22T12:53:36.869Z,11.74
2018-12-22T12:58:43.076Z,17.56
2018-12-22T13:03:49.373Z,12.58
2018-12-22T13:08:55.544Z,14.41
2018-12-22T13:14:01.709Z,9.41
2018-12-22T13:19:07.893Z,13.49
2018-12-22T13:24:14.005Z,14.91
2018-12-22T13:29:20.147Z,13.69
2018-12-22T13:34:26.279Z,16.76
2018-12-22T13:39:32.527Z,13.43
2018-12-22T13:44:38.663Z,16.14
2018-12-22T13:49:45.089Z,13.19
2018-12-22T13:54:50.965Z,12.64
2018-12-22T13:59:57.137Z,17.60
2018-12-22T14:05:03.260Z,12.66
2018-12-22T14:10:09.509Z,13.54
2018-12-22T14:15:15.628Z,18.37
2018-12-22T14:20:21.810Z,12.76
2018-12-22T14:25:30.142Z,12.96
2018-12-22T14:30:36.288Z,10.33
2018-12-22T14:35:42.477Z,12.72
2018-12-22T14:40:48.714Z,13.92
2018-12-22T14:45:54.952Z,10.67
2018-12-22T14:51:01.136Z,12.31
2018-12-22T14:56:07.306Z,12.85
2018-12-22T15:01:13.479Z,15.94
2018-12-22T15:06:20.029Z,17.56
2018-12-22T15:11:26.344Z,11.96
2018-12-22T15:16:32.505Z,19.65
2018-12-22T15:21:38.697Z,21.23
2018-12-22T15:26:44.916Z,19.19
2018-12-22T15:31:51.056Z,13.99
2018-12-22T15:36:57.367Z,11.95
2018-12-22T15:42:03.652Z,16.54
2018-12-22T15:47:09.894Z,25.72
2018-12-22T15:52:15.986Z,24.14
2018-12-22T15:57:22.128Z,16.04
2018-12-22T16:02:28.374Z,21.60
2018-12-22T16:07:34.542Z,19.75
2018-12-22T16:12:40.726Z,17.36
2018-12-22T16:17:46.879Z,20.35
2018-12-22T16:22:53.025Z,16.37
2018-12-22T16:27:59.165Z,20.14
2018-12-22T16:33:05.539Z,13.12
2018-12-22T16:38:11.674Z,57.88
2018-12-22T16:43:24.212Z,17.81
2018-12-22T16:48:20.358Z,17.76
2018-12-22T16:53:26.579Z,19.19
2018-12-22T16:58:32.729Z,20.41
2018-12-22T17:03:39.058Z,15.35
2018-12-22T17:08:45.224Z,18.85
2018-12-22T17:13:51.433Z,16.90
2018-12-22T17:18:57.557Z,16.73
2018-12-22T17:24:03.824Z,15.67
2018-12-22T17:29:10.255Z,10.76
2018-12-22T17:34:16.389Z,11.44
2018-12-22T17:39:22.542Z,18.07
2018-12-22T17:44:28.838Z,20.39
2018-12-22T17:49:35.042Z,18.08
2018-12-22T17:54:41.348Z,15.56
2018-12-22T17:59:47.482Z,16.00
2018-12-22T18:04:53.634Z,13.36
2018-12-22T18:09:59.837Z,17.87
2018-12-22T18:15:06.035Z,15.94
2018-12-22T18:20:12.321Z,22.69
2018-12-22T18:25:18.463Z,14.11
2018-12-22T18:30:24.657Z,20.63
2018-12-22T18:35:30.788Z,17.88
2018-12-22T18:40:36.944Z,16.03
2018-12-22T18:45:43.311Z,13.25
2018-12-22T18:50:49.529Z,17.04
2018-12-22T18:55:55.636Z,16.64
2018-12-22T19:01:01.771Z,13.23
2018-12-22T19:06:07.898Z,21.02
2018-12-22T19:11:14.081Z,14.51
2018-12-22T19:16:20.216Z,20.01
2018-12-22T19:21:26.489Z,19.25
2018-12-22T19:26:32.592Z,15.69
2018-12-22T19:31:41.935Z,12.67
2018-12-22T19:36:44.498Z,16.36
2018-12-22T19:41:50.729Z,15.81
2018-12-22T19:46:56.866Z,16.26
2018-12-22T19:52:03.014Z,16.42
2018-12-22T19:57:09.137Z,17.43
2018-12-22T20:02:15.351Z,14.78
2018-12-22T20:07:21.511Z,13.69
2018-12-22T20:12:27.738Z,15.63
2018-12-22T20:17:34.020Z,15.38
2018-12-22T20:22:41.194Z,12.42
2018-12-22T20:27:47.467Z,12.14
2018-12-22T20:32:53.575Z,13.62
2018-12-22T20:37:59.675Z,14.09
2018-12-22T20:43:05.813Z,14.94
2018-12-22T20:48:11.932Z,15.43
2018-12-22T20:53:18.089Z,12.14
2018-12-22T20:58:24.208Z,17.99
2018-12-22T21:03:30.535Z,14.27
2018-12-22T21:08:36.684Z,12.60
2018-12-22T21:13:42.847Z,17.89
2018-12-22T21:18:48.982Z,15.31
2018-12-22T21:23:55.313Z,12.18
2018-12-22T21:29:01.449Z,16.16
2018-12-22T21:34:07.698Z,15.67
2018-12-22T21:39:13.824Z,12.39
2018-12-22T21:44:20.021Z,14.97
2018-12-22T21:49:26.156Z,15.90
2018-12-22T21:54:32.746Z,14.33
2018-12-22T21:59:38.967Z,15.45
2018-12-22T22:04:45.212Z,13.25
2018-12-22T22:09:51.344Z,11.86
2018-12-22T22:14:57.633Z,16.65
2018-12-22T22:20:03.806Z,11.69
2018-12-22T22:25:10.178Z,12.81
2018-12-22T22:30:16.249Z,13.64
2018-12-22T22:35:22.399Z,14.97
2018-12-22T22:40:28.679Z,8.56
2018-12-22T22:45:35.047Z,13.15
2018-12-22T22:50:41.255Z,13.86
2018-12-22T22:55:47.581Z,8.68
2018-12-22T23:00:53.794Z,13.95
2018-12-22T23:06:00.105Z,12.50
2018-12-22T23:11:06.315Z,10.07
2018-12-22T23:16:12.523Z,16.57
2018-12-22T23:21:18.706Z,11.10
2018-12-22T23:26:24.908Z,12.72
2018-12-22T23:31:31.175Z,12.44
2018-12-22T23:36:37.303Z,16.15
2018-12-22T23:41:43.457Z,17.02
2018-12-22T23:46:49.677Z,15.72
2018-12-22T23:51:55.884Z,20.98
2018-12-22T23:57:02.052Z,18.74
